Time;durP1;ratioP1;P1;durP2;ratioP2;P2;SDS_P1;SDS_P2;PMS_P1;PMS_P2;Temp;Humidity;BMP_temperature;BMP_pressure;BME280_temperature;BME280_humidity;BME280_pressure;Samples;Min_cycle;Max_cycle;Signal;HPM_P1;HPM_P2
2022/09/09 00:01:44;;;;;;;1.92;1.48;;;;;;;15.20;86.11;98851.25;5069627;28;20415;-70
2022/09/09 00:04:20;;;;;;;2.00;1.15;;;;;;;15.17;85.95;98847.03;5069341;28;20044;-69
2022/09/09 00:07:00;;;;;;;2.63;1.30;;;;;;;15.10;86.68;98837.88;5069127;28;20045;-70
2022/09/09 00:09:29;;;;;;;1.85;1.15;;;;;;;15.03;85.90;98842.00;5069488;28;20048;-69
2022/09/09 00:12:03;;;;;;;2.08;1.13;;;;;;;15.03;86.32;98834.06;5069117;28;20058;-70
2022/09/09 00:14:38;;;;;;;2.10;1.30;;;;;;;15.01;86.23;98842.16;5069524;28;20099;-69
2022/09/09 00:17:10;;;;;;;2.47;1.35;;;;;;;14.97;85.81;98839.88;5069192;28;20055;-69
2022/09/09 00:19:43;;;;;;;2.20;1.05;;;;;;;14.95;86.66;98847.13;5069158;28;20089;-70
2022/09/09 00:22:17;;;;;;;5.20;1.20;;;;;;;14.93;86.43;98841.09;5069151;28;20045;-70
2022/09/09 00:24:46;;;;;;;2.92;1.58;;;;;;;14.92;86.44;98848.22;5069305;28;20057;-69
2022/09/09 00:27:22;;;;;;;2.70;1.50;;;;;;;14.89;86.53;98844.97;5068892;28;20048;-69
2022/09/09 00:29:55;;;;;;;4.07;1.48;;;;;;;14.87;87.04;98846.91;5069330;28;20048;-69
2022/09/09 00:32:23;;;;;;;3.25;1.58;;;;;;;14.87;87.48;98838.97;5069106;28;20052;-69
2022/09/09 00:34:53;;;;;;;2.50;1.40;;;;;;;14.86;87.85;98837.25;5065845;28;20067;-69
2022/09/09 00:37:25;;;;;;;3.55;1.40;;;;;;;14.86;87.64;98832.78;5069036;28;20534;-69
2022/09/09 00:39:56;;;;;;;2.38;1.42;;;;;;;14.84;88.02;98836.53;5069203;28;20052;-70
2022/09/09 00:42:25;;;;;;;5.20;1.50;;;;;;;14.85;88.56;98835.59;5069101;28;20048;-71
2022/09/09 00:44:59;;;;;;;6.32;1.60;;;;;;;14.88;88.60;98830.84;5068979;28;20060;-68
2022/09/09 00:47:42;;;;;;;2.50;1.45;;;;;;;14.90;89.78;98833.41;5066767;28;20044;-69
2022/09/09 00:50:24;;;;;;;5.97;2.58;;;;;;;14.87;89.90;98826.53;5068712;28;20048;-68
2022/09/09 00:53:03;;;;;;;3.25;1.95;;;;;;;14.87;89.10;98834.50;5068546;28;20501;-70
2022/09/09 00:55:40;;;;;;;4.78;1.73;;;;;;;14.88;88.96;98830.00;5048797;28;20049;-70
2022/09/09 00:58:08;;;;;;;3.28;1.38;;;;;;;14.88;89.73;98830.00;5049991;28;20424;-70
2022/09/09 01:00:43;;;;;;;3.35;1.40;;;;;;;14.89;89.34;98839.66;5053751;28;20045;-70
2022/09/09 01:03:21;;;;;;;3.47;1.90;;;;;;;14.90;89.45;98844.84;5072550;28;20055;-70
2022/09/09 01:06:00;;;;;;;4.35;2.20;;;;;;;14.93;89.77;98841.94;5072889;28;20087;-70
2022/09/09 01:08:48;;;;;;;4.15;2.08;;;;;;;14.92;89.12;98842.91;5072704;28;20443;-69
2022/09/09 01:11:22;;;;;;;4.65;1.50;;;;;;;14.91;89.62;98840.38;5072405;28;20060;-69
2022/09/09 01:13:54;;;;;;;8.38;2.17;;;;;;;14.91;89.40;98843.03;5072522;28;20067;-69
2022/09/09 01:16:21;;;;;;;3.70;1.75;;;;;;;14.93;89.58;98844.59;5072267;28;20068;-69
2022/09/09 01:18:53;;;;;;;4.60;2.20;;;;;;;14.95;89.58;98836.50;5072580;28;20455;-67
2022/09/09 01:21:28;;;;;;;6.68;2.55;;;;;;;14.96;89.93;98840.84;5072414;28;20048;-68
2022/09/09 01:24:14;;;;;;;3.92;1.52;;;;;;;14.97;90.15;98839.88;5072468;28;20051;-68
2022/09/09 01:26:44;;;;;;;3.47;2.00;;;;;;;14.99;90.09;98837.94;5072253;28;20419;-68
2022/09/09 01:29:14;;;;;;;4.00;2.15;;;;;;;14.99;90.03;98836.13;5072319;28;20056;-68
2022/09/09 01:31:43;;;;;;;7.13;2.10;;;;;;;15.00;90.43;98835.16;5072231;28;20040;-69
2022/09/09 01:34:12;;;;;;;9.02;2.92;;;;;;;15.04;90.38;98838.41;5071923;28;21056;-68
2022/09/09 01:36:43;;;;;;;7.13;2.58;;;;;;;15.06;90.15;98833.78;5071865;28;20469;-69
2022/09/09 01:39:10;;;;;;;8.70;2.22;;;;;;;15.10;90.42;98834.41;5072046;28;20056;-68
2022/09/09 01:41:37;;;;;;;5.35;1.67;;;;;;;15.15;90.37;98833.03;5071967;28;20048;-68
2022/09/09 01:44:06;;;;;;;5.13;2.08;;;;;;;15.21;90.58;98821.03;5071710;28;20048;-68
2022/09/09 01:46:33;;;;;;;6.75;2.50;;;;;;;15.22;90.50;98828.91;5071548;28;20051;-68
2022/09/09 01:49:01;;;;;;;6.80;2.30;;;;;;;15.28;90.42;98829.34;5071919;28;20071;-67
2022/09/09 01:51:28;;;;;;;10.48;2.65;;;;;;;15.33;89.91;98824.50;5071668;28;20194;-69
2022/09/09 01:53:55;;;;;;;8.18;2.92;;;;;;;15.37;89.95;98828.59;5071382;28;20041;-67
2022/09/09 01:56:40;;;;;;;5.65;1.77;;;;;;;15.42;89.70;98824.56;5071507;28;20561;-68
2022/09/09 01:59:24;;;;;;;5.32;1.90;;;;;;;15.45;89.69;98823.44;5071735;28;20052;-68
2022/09/09 02:02:03;;;;;;;4.22;2.25;;;;;;;15.51;89.91;98824.78;5068476;28;20052;-68
2022/09/09 02:04:38;;;;;;;4.82;2.45;;;;;;;15.56;89.50;98825.22;5071490;28;20055;-67
2022/09/09 02:07:32;;;;;;;6.10;2.22;;;;;;;15.60;88.99;98823.97;5071505;28;20052;-68
2022/09/09 02:10:05;;;;;;;9.05;2.83;;;;;;;15.60;88.79;98829.28;5071516;28;20135;-68
2022/09/09 02:12:32;;;;;;;3.22;2.20;;;;;;;15.59;88.46;98819.63;5071416;28;20064;-67
2022/09/09 02:15:06;;;;;;;4.40;1.80;;;;;;;15.63;88.73;98823.72;5074822;28;20102;-69
2022/09/09 02:17:37;;;;;;;4.13;1.80;;;;;;;15.66;88.73;98816.31;5074503;28;20052;-69
2022/09/09 02:20:08;;;;;;;6.70;2.63;;;;;;;15.72;88.41;98816.78;5072874;28;20058;-67
2022/09/09 02:22:36;;;;;;;9.05;2.40;;;;;;;15.70;87.83;98813.41;5073007;28;20049;-67
2022/09/09 02:25:06;;;;;;;11.45;2.15;;;;;;;15.71;88.20;98809.81;5065441;28;20552;-68
2022/09/09 02:27:33;;;;;;;5.60;2.80;;;;;;;15.71;87.96;98810.66;5051030;28;20519;-67
2022/09/09 02:30:02;;;;;;;11.85;2.65;;;;;;;15.70;87.62;98810.75;5051203;28;20049;-67
2022/09/09 02:32:30;;;;;;;6.25;2.03;;;;;;;15.72;87.81;98808.81;5050830;28;20049;-69
2022/09/09 02:35:01;;;;;;;6.10;3.28;;;;;;;15.74;87.65;98810.38;5050987;28;20052;-70
2022/09/09 02:37:33;;;;;;;6.15;3.67;;;;;;;15.73;87.79;98808.69;5050581;28;20493;-70
2022/09/09 02:39:59;;;;;;;11.27;3.50;;;;;;;15.74;87.59;98804.22;5067689;28;20044;-70
2022/09/09 02:42:26;;;;;;;6.43;2.28;;;;;;;15.76;87.79;98805.78;5070701;28;20049;-69
2022/09/09 02:44:52;;;;;;;12.20;3.65;;;;;;;15.78;87.70;98809.16;5070714;28;20518;-69
2022/09/09 02:47:28;;;;;;;6.05;2.15;;;;;;;15.80;87.51;98799.22;5070616;28;20058;-70
2022/09/09 02:50:01;;;;;;;;;;;;;;;15.80;87.72;98801.03;5071718;28;20499;-70
2022/09/09 02:52:39;;;;;;;7.13;2.72;;;;;;;15.81;87.28;98802.72;5070954;28;19920;-69
2022/09/09 02:55:11;;;;;;;4.82;1.92;;;;;;;15.80;86.91;98801.88;5067989;28;20052;-70
2022/09/09 02:57:40;;;;;;;7.32;2.42;;;;;;;15.80;87.18;98806.34;5070773;28;20060;-70
2022/09/09 03:00:08;;;;;;;11.10;2.42;;;;;;;15.78;87.13;98806.47;5070475;28;20160;-70
2022/09/09 03:02:35;;;;;;;8.07;2.03;;;;;;;15.78;86.99;98809.16;5053439;28;20565;-69
2022/09/09 03:05:02;;;;;;;13.35;2.70;;;;;;;15.79;86.88;98808.16;5052277;28;20059;-69
2022/09/09 03:07:28;;;;;;;7.43;2.05;;;;;;;15.81;86.84;98808.03;5051233;28;20049;-69
2022/09/09 03:09:55;;;;;;;8.32;2.47;;;;;;;15.83;86.49;98812.25;5056097;28;20053;-69
2022/09/09 03:12:22;;;;;;;9.20;3.10;;;;;;;15.80;86.41;98809.84;5057964;28;20103;-69
2022/09/09 03:14:48;;;;;;;3.47;2.30;;;;;;;15.78;86.13;98808.31;5052857;28;20049;-69
2022/09/09 03:17:15;;;;;;;8.60;2.97;;;;;;;15.74;85.83;98810.38;5051859;28;20052;-70
2022/09/09 03:19:43;;;;;;;10.40;2.80;;;;;;;15.75;86.13;98811.22;5051392;28;20052;-69
2022/09/09 03:22:10;;;;;;;5.75;3.17;;;;;;;15.75;85.92;98809.41;5051305;28;20060;-70
2022/09/09 03:24:37;;;;;;;6.20;2.35;;;;;;;15.77;86.07;98807.44;5051052;28;20053;-68
2022/09/09 03:27:04;;;;;;;9.32;2.90;;;;;;;15.79;85.97;98804.66;5050495;28;20048;-68
2022/09/09 03:29:30;;;;;;;7.13;3.10;;;;;;;15.75;85.79;98806.75;5049940;28;20049;-69
2022/09/09 03:31:57;;;;;;;8.93;2.67;;;;;;;15.74;86.02;98802.41;5049973;28;20053;-68
2022/09/09 03:34:23;;;;;;;8.45;2.67;;;;;;;15.77;86.06;98817.25;5051486;28;20397;-68
2022/09/09 03:36:51;;;;;;;5.45;2.47;;;;;;;15.76;86.00;98800.47;5069325;28;20044;-68
2022/09/09 03:39:18;;;;;;;7.97;2.38;;;;;;;15.75;85.57;98798.78;5049890;28;20103;-66
2022/09/09 03:41:47;;;;;;;6.57;2.33;;;;;;;15.74;85.73;98804.22;5049883;28;20053;-68
2022/09/09 03:44:13;;;;;;;10.05;2.58;;;;;;;15.73;85.21;98807.88;5069683;28;20049;-70
2022/09/09 03:46:40;;;;;;;7.53;2.42;;;;;;;15.74;85.54;98804.22;5069589;28;20056;-68
2022/09/09 03:49:07;;;;;;;5.78;2.65;;;;;;;15.74;84.96;98801.56;5069378;28;20109;-68
2022/09/09 03:51:36;;;;;;;9.30;2.97;;;;;;;15.74;84.63;98810.38;5069475;28;20052;-67
2022/09/09 03:54:04;;;;;;;8.13;3.25;;;;;;;15.75;84.91;98811.22;5069253;28;20045;-68
2022/09/09 03:56:31;;;;;;;6.20;2.83;;;;;;;15.79;84.83;98807.31;5069199;28;20508;-68
2022/09/09 03:58:58;;;;;;;12.77;2.90;;;;;;;15.81;84.72;98805.38;5069467;28;20052;-68
2022/09/09 04:01:24;;;;;;;9.32;2.45;;;;;;;15.81;84.51;98800.91;5069264;28;20041;-67
2022/09/09 04:03:52;;;;;;;6.75;2.35;;;;;;;15.84;84.13;98797.97;5069017;28;20040;-67
2022/09/09 04:06:20;;;;;;;10.63;2.67;;;;;;;15.87;84.39;98792.41;5069172;28;20055;-69
2022/09/09 04:08:48;;;;;;;7.47;3.03;;;;;;;15.85;84.07;98798.81;5069390;28;20056;-68
2022/09/09 04:11:16;;;;;;;11.43;2.72;;;;;;;15.85;84.37;98802.31;5069333;28;20040;-68
2022/09/09 04:13:44;;;;;;;7.82;2.47;;;;;;;15.85;84.10;98799.66;5069226;28;20045;-68
2022/09/09 04:16:12;;;;;;;7.20;2.35;;;;;;;15.85;83.85;98794.34;5069103;28;20056;-69
2022/09/09 04:18:39;;;;;;;5.38;2.70;;;;;;;15.87;83.76;98791.53;5069311;28;20052;-69
2022/09/09 04:21:08;;;;;;;5.28;2.33;;;;;;;15.90;84.10;98788.63;5069333;28;20055;-68
2022/09/09 04:23:36;;;;;;;6.30;2.28;;;;;;;15.93;83.85;98790.19;5069288;28;20045;-68
2022/09/09 04:26:04;;;;;;;6.50;2.58;;;;;;;15.88;83.75;98787.94;5055796;28;20049;-67
2022/09/09 04:28:33;;;;;;;10.40;2.30;;;;;;;15.87;84.22;98788.88;5049134;28;20057;-67
2022/09/09 04:31:05;;;;;;;6.93;2.35;;;;;;;15.87;84.07;98787.09;5053629;28;20044;-68
2022/09/09 04:33:32;;;;;;;4.32;2.20;;;;;;;15.88;84.33;98793.25;5071238;28;20044;-69
2022/09/09 04:35:59;;;;;;;5.47;2.10;;;;;;;15.89;83.66;98786.94;5073167;28;20049;-69
2022/09/09 04:38:26;;;;;;;5.50;2.42;;;;;;;15.89;83.58;98800.22;5072958;28;20040;-68
2022/09/09 04:40:54;;;;;;;8.10;2.30;;;;;;;15.91;83.41;98802.75;5073185;28;20049;-69
2022/09/09 04:43:22;;;;;;;7.00;3.00;;;;;;;15.89;83.40;98805.53;5072832;28;20130;-69
2022/09/09 04:45:52;;;;;;;3.13;2.05;;;;;;;15.87;83.26;98804.84;5072643;28;20131;-69
2022/09/09 04:48:18;;;;;;;10.15;2.90;;;;;;;15.85;82.72;98804.97;5072866;28;20048;-69
2022/09/09 04:50:54;;;;;;;6.75;2.63;;;;;;;15.89;82.94;98802.88;5070521;28;20056;-69
2022/09/09 04:53:21;;;;;;;5.85;2.10;;;;;;;15.89;83.24;98800.22;5052921;28;20045;-68
2022/09/09 04:55:48;;;;;;;6.13;2.25;;;;;;;15.89;82.54;98800.22;5053212;28;20084;-69
2022/09/09 04:58:15;;;;;;;7.55;2.80;;;;;;;15.91;82.19;98803.59;5052698;28;20049;-68
2022/09/09 05:00:43;;;;;;;7.03;2.28;;;;;;;15.86;81.82;98811.13;5052495;28;20095;-68
2022/09/09 05:03:12;;;;;;;9.52;2.92;;;;;;;15.84;82.20;98810.41;5054090;28;20139;-70
2022/09/09 05:05:39;;;;;;;10.73;2.40;;;;;;;15.82;82.48;98807.06;5055783;28;20049;-69
2022/09/09 05:08:07;;;;;;;7.45;2.53;;;;;;;15.80;82.21;98807.19;5055031;28;20072;-69
2022/09/09 05:10:34;;;;;;;7.68;2.47;;;;;;;15.78;81.80;98808.31;5055119;28;20049;-69
2022/09/09 05:13:01;;;;;;;9.32;2.47;;;;;;;15.76;82.06;98811.09;5056261;28;20045;-70
2022/09/09 05:15:28;;;;;;;7.88;2.80;;;;;;;15.75;82.04;98809.41;5054815;28;20052;-69
2022/09/09 05:17:58;;;;;;;5.20;2.25;;;;;;;15.73;82.30;98808.69;5056014;28;20056;-69
2022/09/09 05:20:27;;;;;;;15.98;2.85;;;;;;;15.72;82.22;98811.47;5055645;28;20053;-69
2022/09/09 05:22:54;;;;;;;5.10;1.98;;;;;;;15.74;81.93;98806.88;5052548;28;20456;-68
2022/09/09 05:25:21;;;;;;;8.35;2.28;;;;;;;15.73;81.26;98807.88;5052207;28;20051;-68
2022/09/09 05:27:49;;;;;;;6.63;2.63;;;;;;;15.72;81.29;98811.47;5060916;28;20060;-68
2022/09/09 05:30:16;;;;;;;7.53;3.10;;;;;;;15.74;81.53;98806.88;5072035;28;20546;-69
2022/09/09 05:32:43;;;;;;;11.75;2.42;;;;;;;15.74;81.45;98804.22;5072452;28;20055;-70
2022/09/09 05:35:09;;;;;;;5.57;2.58;;;;;;;15.73;81.39;98805.22;5071675;28;20436;-68
2022/09/09 05:37:40;;;;;;;9.60;2.40;;;;;;;15.78;81.11;98805.66;5071703;28;20052;-69
2022/09/09 05:40:09;;;;;;;7.35;2.40;;;;;;;15.80;81.05;98801.03;5072005;28;20060;-69
2022/09/09 05:42:39;;;;;;;10.27;3.67;;;;;;;15.80;80.56;98804.53;5071659;28;20049;-69
2022/09/09 05:45:08;;;;;;;8.23;3.00;;;;;;;15.83;80.68;98811.41;5070925;28;20104;-69
2022/09/09 05:47:38;;;;;;;10.23;2.33;;;;;;;15.85;80.44;98814.75;5071609;28;20397;-69
2022/09/09 05:50:06;;;;;;;9.25;2.22;;;;;;;15.86;80.00;98808.47;5038353;28;20084;-68
2022/09/09 05:52:33;;;;;;;7.43;2.50;;;;;;;15.86;79.85;98813.78;5071497;28;20152;-69
2022/09/09 05:55:01;;;;;;;6.95;3.17;;;;;;;15.91;79.60;98810.75;5071760;28;20055;-69
2022/09/09 05:57:27;;;;;;;6.53;2.22;;;;;;;15.89;79.29;98808.19;5071563;28;20056;-69
2022/09/09 05:59:54;;;;;;;7.78;2.30;;;;;;;15.90;79.21;98804.59;5051613;28;20060;-71
2022/09/09 06:02:22;;;;;;;9.00;2.53;;;;;;;15.94;78.88;98802.50;5051149;28;20053;-67
2022/09/09 06:04:49;;;;;;;6.20;2.42;;;;;;;15.92;79.04;98794.63;5051107;28;20416;-68
2022/09/09 06:07:17;;;;;;;7.75;2.03;;;;;;;15.91;78.97;98803.59;5051122;28;20052;-68
2022/09/09 06:09:45;;;;;;;6.13;2.28;;;;;;;15.91;78.58;98797.44;5051580;28;20056;-68
2022/09/09 06:12:13;;;;;;;7.30;2.25;;;;;;;15.93;78.53;98799.00;5051176;28;20053;-69
2022/09/09 06:14:40;;;;;;;5.88;1.90;;;;;;;15.92;79.05;98799.94;5051108;28;20045;-68
2022/09/09 06:17:07;;;;;;;9.15;2.90;;;;;;;15.91;78.51;98805.41;5050948;28;20578;-70
2022/09/09 06:19:34;;;;;;;7.78;3.22;;;;;;;15.87;78.79;98811.00;5051153;28;20059;-69
2022/09/09 06:22:01;;;;;;;7.47;2.55;;;;;;;15.89;78.46;98806.38;5051045;28;20057;-69
2022/09/09 06:24:30;;;;;;;4.85;2.15;;;;;;;15.90;78.01;98809.91;5063356;28;20044;-70
2022/09/09 06:26:57;;;;;;;4.75;2.13;;;;;;;15.89;77.77;98806.38;5070502;28;20467;-68
2022/09/09 06:29:25;;;;;;;4.32;2.45;;;;;;;15.93;78.01;98809.63;5070792;28;20051;-70
2022/09/09 06:31:52;;;;;;;11.50;2.63;;;;;;;15.92;77.18;98807.09;5067071;28;20050;-70
2022/09/09 06:34:21;;;;;;;8.43;2.53;;;;;;;15.96;77.17;98805.84;5070587;28;20072;-70
2022/09/09 06:36:51;;;;;;;9.70;2.45;;;;;;;16.03;76.85;98799.88;5070547;28;20118;-70
2022/09/09 06:39:21;;;;;;;9.25;2.38;;;;;;;16.14;76.25;98793.59;5070643;28;20070;-69
2022/09/09 06:41:49;;;;;;;8.43;2.85;;;;;;;16.22;76.32;98792.91;5070336;28;20052;-68
2022/09/09 06:44:26;;;;;;;6.40;2.10;;;;;;;16.26;75.68;98791.69;5068880;28;20128;-69
2022/09/09 06:46:56;;;;;;;8.85;2.60;;;;;;;16.35;75.16;98792.69;5070342;28;20056;-68
2022/09/09 06:49:24;;;;;;;6.05;2.40;;;;;;;16.44;74.87;98797.16;5069276;28;20121;-68
2022/09/09 06:51:51;;;;;;;6.05;2.35;;;;;;;16.50;74.39;98797.47;5070383;28;20056;-69
2022/09/09 06:54:19;;;;;;;11.77;2.90;;;;;;;16.52;74.09;98798.19;5058480;28;20049;-71
2022/09/09 06:56:46;;;;;;;6.43;2.00;;;;;;;16.63;74.16;98793.72;5048970;28;20440;-70
2022/09/09 06:59:13;;;;;;;5.35;2.28;;;;;;;16.65;73.51;98800.56;5050084;28;20057;-70
2022/09/09 07:01:43;;;;;;;9.88;3.13;;;;;;;16.67;74.04;98795.13;5052591;28;20090;-70
2022/09/09 07:04:12;;;;;;;7.63;3.05;;;;;;;16.77;74.12;98806.63;5070266;28;20102;-69
2022/09/09 07:06:42;;;;;;;7.47;2.22;;;;;;;16.83;73.22;98808.72;5069972;28;20113;-70
2022/09/09 07:09:10;;;;;;;6.05;2.83;;;;;;;16.88;73.13;98813.66;5070192;28;20076;-68
2022/09/09 07:11:41;;;;;;;8.30;2.83;;;;;;;16.94;73.55;98815.75;5069936;28;20059;-55
2022/09/09 07:14:08;;;;;;;5.70;2.30;;;;;;;17.21;72.98;98809.72;5069765;28;20076;-53
2022/09/09 07:16:37;;;;;;;10.05;2.42;;;;;;;17.51;71.46;98811.34;5069740;28;20052;-56
2022/09/09 07:19:03;;;;;;;6.72;2.65;;;;;;;17.82;70.28;98811.19;5070044;28;20048;-55
2022/09/09 07:21:33;;;;;;;5.57;2.25;;;;;;;18.06;68.23;98815.97;5069636;28;20143;-57
2022/09/09 07:24:02;;;;;;;6.53;2.63;;;;;;;18.30;67.96;98810.09;5069484;28;20052;-52
2022/09/09 07:26:30;;;;;;;12.63;3.95;;;;;;;18.46;67.17;98820.16;5069921;28;20048;-50
2022/09/09 07:28:57;;;;;;;6.97;2.40;;;;;;;18.48;66.68;98823.47;5070242;28;20059;-57
2022/09/09 07:31:26;;;;;;;13.85;2.67;;;;;;;18.59;66.22;98820.63;5069922;28;20099;-53
2022/09/09 07:33:53;;;;;;;9.57;3.10;;;;;;;18.58;66.17;98821.63;5069359;28;20044;-52
2022/09/09 07:36:21;;;;;;;10.57;2.60;;;;;;;18.59;65.85;98819.78;5069337;28;20044;-50
2022/09/09 07:38:51;;;;;;;8.27;3.08;;;;;;;18.66;65.08;98810.19;5069789;28;20515;-55
2022/09/09 07:41:20;;;;;;;7.15;2.38;;;;;;;18.64;65.67;98820.16;5070062;28;20045;-56
2022/09/09 07:43:48;;;;;;;5.72;2.30;;;;;;;18.72;66.21;98816.75;5070258;28;20062;-54
2022/09/09 07:46:17;;;;;;;15.68;3.15;;;;;;;18.94;65.31;98815.47;5069743;28;20045;-53
2022/09/09 07:48:45;;;;;;;5.10;2.42;;;;;;;19.15;64.87;98823.16;5069996;28;20049;-51
2022/09/09 07:51:14;;;;;;;6.55;2.22;;;;;;;19.06;63.78;98815.09;5070895;28;20048;-50
2022/09/09 07:53:41;;;;;;;7.95;2.55;;;;;;;19.05;63.23;98813.44;5070013;28;20048;-52
2022/09/09 07:56:12;;;;;;;5.93;2.75;;;;;;;19.15;63.66;98821.34;5069878;28;20040;-49
2022/09/09 07:58:40;;;;;;;13.38;3.22;;;;;;;19.23;62.24;98817.91;5070545;28;20111;-50
2022/09/09 08:01:09;;;;;;;5.88;2.55;;;;;;;19.28;62.58;98818.28;5069673;28;20044;-50
2022/09/09 08:03:36;;;;;;;6.55;2.47;;;;;;;19.32;61.15;98817.00;5069760;28;20504;-52
2022/09/09 08:06:04;;;;;;;6.05;2.28;;;;;;;19.35;60.92;98827.38;5069381;28;20055;-56
2022/09/09 08:08:31;;;;;;;9.07;2.60;;;;;;;19.47;60.67;98830.63;5069039;28;20056;-51
2022/09/09 08:11:03;;;;;;;6.85;2.10;;;;;;;19.39;60.84;98828.72;5069113;28;20539;-47
2022/09/09 08:13:32;;;;;;;10.60;2.58;;;;;;;19.53;60.38;98827.31;5068929;28;20140;-55
2022/09/09 08:16:06;;;;;;;4.70;2.38;;;;;;;19.52;60.49;98831.00;5065193;28;20515;-47
2022/09/09 08:18:33;;;;;;;5.57;2.28;;;;;;;19.45;60.11;98830.78;5069051;28;20496;-54
2022/09/09 08:21:08;;;;;;;5.50;2.47;;;;;;;19.40;59.96;98834.91;5069446;28;20055;-52
2022/09/09 08:26:56;;;;;;;4.90;2.08;;;;;;;19.46;60.06;98843.13;5070219;28;20047;-67
2022/09/09 08:29:24;;;;;;;12.02;3.60;;;;;;;19.27;59.92;98843.31;5057988;28;20072;-71
2022/09/09 08:31:54;;;;;;;6.28;2.15;;;;;;;19.02;60.96;98845.75;5065091;28;20135;-70
2022/09/09 08:34:21;;;;;;;7.53;2.30;;;;;;;18.92;61.27;98850.34;5068447;28;20055;-72
2022/09/09 08:36:49;;;;;;;5.10;1.80;;;;;;;18.88;61.42;98855.16;5070059;28;20160;-70
2022/09/09 08:39:17;;;;;;;12.00;3.05;;;;;;;18.84;61.56;98855.63;5066288;28;20037;-69
2022/09/09 08:42:13;;;;;;;3.42;1.83;;;;;;;19.00;61.47;98858.47;5050309;28;20049;-69
2022/09/09 08:45:01;;;;;;;8.93;2.05;;;;;;;18.97;61.63;98848.06;5049772;28;20134;-70
2022/09/09 08:47:40;;;;;;;4.57;2.33;;;;;;;18.94;61.97;98851.03;5050574;28;20075;-70
2022/09/09 08:50:21;;;;;;;10.50;2.65;;;;;;;18.88;61.81;98847.16;5050013;28;20741;-70
2022/09/09 08:52:55;;;;;;;5.47;2.28;;;;;;;18.80;62.17;98841.75;5048730;28;20442;-68
2022/09/09 08:55:27;;;;;;;5.45;2.72;;;;;;;18.64;62.45;98849.53;5048805;28;20463;-68
2022/09/09 08:57:56;;;;;;;8.35;2.60;;;;;;;18.62;62.70;98851.50;5048615;28;20053;-69
2022/09/09 09:00:38;;;;;;;6.90;1.92;;;;;;;18.81;62.42;98848.75;5051642;28;20136;-69
2022/09/09 09:03:13;;;;;;;5.32;2.60;;;;;;;18.99;62.56;98853.25;5048928;28;20051;-69
2022/09/09 09:05:46;;;;;;;;;;;;;;;19.04;61.30;98853.63;5049445;28;20053;-70
2022/09/09 09:08:22;;;;;;;6.03;2.50;;;;;;;19.14;61.63;98845.53;5048721;28;19920;-68
2022/09/09 09:10:50;;;;;;;6.93;2.08;;;;;;;19.45;61.30;98849.50;5048717;28;20076;-70
2022/09/09 09:13:21;;;;;;;13.00;3.47;;;;;;;19.97;62.73;98834.50;5061857;28;20523;-69
2022/09/09 09:15:54;;;;;;;5.97;2.53;;;;;;;20.37;58.61;98836.50;5068465;28;20393;-68
2022/09/09 09:18:21;;;;;;;8.93;2.55;;;;;;;20.64;56.97;98845.34;5068790;28;20048;-70
2022/09/09 09:20:55;;;;;;;6.55;2.67;;;;;;;21.09;55.37;98844.91;5072048;28;20060;-70
2022/09/09 09:23:24;;;;;;;4.45;1.77;;;;;;;21.86;52.44;98844.59;5072019;28;20132;-71
2022/09/09 09:25:53;;;;;;;6.18;2.50;;;;;;;22.52;50.65;98837.19;5072096;28;20098;-70
2022/09/09 09:28:24;;;;;;;4.10;2.22;;;;;;;23.53;48.02;98838.03;5072357;28;20041;-70
2022/09/09 09:30:58;;;;;;;3.75;2.47;;;;;;;24.18;45.77;98844.59;5071884;28;20131;-69
2022/09/09 09:33:28;;;;;;;5.57;2.42;;;;;;;24.80;44.45;98843.31;5072167;28;20569;-70
2022/09/09 09:35:55;;;;;;;4.82;2.10;;;;;;;25.66;42.90;98849.56;5072216;28;20048;-69
2022/09/09 09:38:24;;;;;;;4.55;1.75;;;;;;;26.07;41.30;98838.06;5071823;28;20135;-70
2022/09/09 09:40:51;;;;;;;2.83;1.52;;;;;;;26.38;41.11;98844.03;5074048;28;20055;-70
2022/09/09 09:43:22;;;;;;;4.32;1.88;;;;;;;25.89;41.05;98835.88;5075833;28;20080;-69
2022/09/09 09:45:49;;;;;;;5.00;1.33;;;;;;;25.05;42.55;98846.50;5074604;28;20064;-70
2022/09/09 09:48:17;;;;;;;5.22;1.88;;;;;;;24.40;43.31;98842.81;5074864;28;20700;-70
2022/09/09 09:50:50;;;;;;;5.55;2.38;;;;;;;24.09;44.53;98846.53;5074006;28;20513;-70
2022/09/09 09:53:24;;;;;;;3.60;1.42;;;;;;;23.35;46.24;98860.66;5052218;28;20052;-69
2022/09/09 09:55:56;;;;;;;8.68;2.15;;;;;;;22.53;47.90;98854.13;5053942;28;20138;-69
2022/09/09 09:58:23;;;;;;;5.90;1.80;;;;;;;21.98;49.23;98856.63;5057735;28;20516;-70
2022/09/09 10:00:51;;;;;;;5.00;1.77;;;;;;;21.66;50.01;98860.22;5055775;28;20102;-70
2022/09/09 10:03:25;;;;;;;3.75;1.60;;;;;;;21.53;50.62;98859.88;5071458;28;20056;-69
2022/09/09 10:05:52;;;;;;;3.70;1.85;;;;;;;21.26;50.56;98853.81;5071161;28;20434;-70
2022/09/09 10:08:19;;;;;;;4.65;1.60;;;;;;;20.93;51.96;98858.31;5071610;28;20041;-69
2022/09/09 10:11:01;;;;;;;4.20;1.90;;;;;;;20.75;52.54;98850.41;5071111;28;20052;-69
2022/09/09 10:13:34;;;;;;;5.43;1.85;;;;;;;20.43;53.95;98865.31;5051385;28;20059;-70
2022/09/09 10:16:19;;;;;;;8.75;2.20;;;;;;;20.27;54.30;98862.56;5055719;28;20041;-69
2022/09/09 10:18:59;;;;;;;5.97;2.28;;;;;;;20.09;55.42;98870.69;5071019;28;20518;-69
2022/09/09 10:21:38;;;;;;;7.28;2.35;;;;;;;20.33;54.49;98870.81;5071010;28;20056;-69
2022/09/09 10:24:33;;;;;;;4.60;1.75;;;;;;;20.21;54.70;98861.38;5071183;28;20044;-71
2022/09/09 10:27:06;;;;;;;4.22;2.10;;;;;;;20.34;55.59;98858.25;5070610;28;20583;-69
2022/09/09 10:29:48;;;;;;;6.25;1.80;;;;;;;20.19;54.96;98858.00;5070879;28;20058;-69
2022/09/09 10:32:34;;;;;;;4.10;1.63;;;;;;;20.00;55.83;98860.91;5070815;28;20049;-73
2022/09/09 10:35:05;;;;;;;;;;;;;;;19.73;57.35;98866.25;5071158;28;20055;-69
2022/09/09 10:37:47;;;;;;;7.78;2.45;;;;;;;19.75;57.08;98863.44;5070170;28;20307;-71
2022/09/09 10:40:33;;;;;;;21.17;2.40;;;;;;;19.76;57.75;98870.44;5053188;28;20132;-70
2022/09/09 10:43:11;;;;;;;7.43;2.17;;;;;;;19.41;58.72;98861.47;5050724;28;20059;-68
2022/09/09 10:45:50;;;;;;;7.97;2.78;;;;;;;19.25;62.67;98867.53;5050786;28;20049;-68
2022/09/09 10:48:31;;;;;;;4.45;2.00;;;;;;;19.12;64.41;98869.72;5050445;28;20199;-68
2022/09/09 10:51:11;;;;;;;7.13;2.22;;;;;;;18.87;66.31;98876.66;5050617;28;20052;-71
2022/09/09 10:53:52;;;;;;;6.25;2.08;;;;;;;18.61;68.25;98885.38;5068312;28;20056;-68
2022/09/09 10:56:21;;;;;;;8.60;2.85;;;;;;;18.54;69.89;98880.78;5070135;28;20459;-69
2022/09/09 10:58:52;;;;;;;5.63;2.05;;;;;;;18.45;69.02;98874.50;5070710;28;20048;-68
2022/09/09 11:01:25;;;;;;;4.43;2.03;;;;;;;18.40;69.40;98877.59;5062779;28;20048;-68
2022/09/09 11:03:57;;;;;;;6.55;2.35;;;;;;;18.43;66.99;98871.13;5050355;28;20048;-68
2022/09/09 11:06:29;;;;;;;5.07;1.88;;;;;;;18.78;66.14;98865.06;5068157;28;20036;-67
2022/09/09 11:08:59;;;;;;;7.32;2.13;;;;;;;18.88;67.55;98867.69;5070148;28;20056;-70
2022/09/09 11:11:33;;;;;;;4.85;1.92;;;;;;;18.88;64.83;98865.84;5070196;28;20044;-68
2022/09/09 11:14:06;;;;;;;16.58;3.10;;;;;;;18.93;64.07;98856.56;5070291;28;20496;-68
2022/09/09 11:16:41;;;;;;;7.25;2.35;;;;;;;18.99;63.51;98864.78;5070082;28;20044;-69
2022/09/09 11:19:16;;;;;;;5.30;2.40;;;;;;;18.88;63.18;98865.00;5070230;28;20059;-68
2022/09/09 11:21:47;;;;;;;7.22;2.00;;;;;;;18.75;64.30;98881.34;5069972;28;20044;-67
2022/09/09 11:24:19;;;;;;;7.05;1.92;;;;;;;18.77;65.68;98870.56;5069932;28;20056;-66
2022/09/09 11:26:51;;;;;;;7.20;2.33;;;;;;;18.71;67.03;98874.66;5069786;28;20051;-69
2022/09/09 11:29:48;;;;;;;4.95;2.05;;;;;;;18.84;67.01;98872.47;5070427;28;20053;-68
2022/09/09 11:32:34;;;;;;;6.43;2.03;;;;;;;18.88;66.45;98873.03;5062726;28;20516;-68
2022/09/09 11:35:12;;;;;;;5.65;2.38;;;;;;;18.83;66.67;98881.47;5069734;28;20053;-69
2022/09/09 11:38:03;;;;;;;8.05;3.60;;;;;;;19.00;67.03;98890.50;5069744;28;20142;-70
2022/09/09 11:40:32;;;;;;;8.25;2.30;;;;;;;18.98;67.59;98886.31;5069732;28;20056;-69
2022/09/09 11:43:05;;;;;;;6.85;2.22;;;;;;;18.95;67.89;98886.59;5069317;28;20055;-69
2022/09/09 11:45:35;;;;;;;4.82;2.58;;;;;;;19.04;67.14;98880.34;5069735;28;20082;-70
2022/09/09 11:48:03;;;;;;;6.60;2.85;;;;;;;18.99;67.16;98888.81;5069542;28;20151;-71
2022/09/09 11:50:36;;;;;;;5.60;2.05;;;;;;;18.97;66.84;98889.97;5069436;28;20053;-69
2022/09/09 11:53:23;;;;;;;4.03;1.70;;;;;;;19.04;66.14;98878.50;5069342;28;20427;-70
2022/09/09 11:56:06;;;;;;;7.93;1.77;;;;;;;19.07;65.92;98880.03;5069135;28;20098;-69